Mountainburg, AR

12:35 AM CDT on September 27, 2016 (GMT -0500)
farm field | | Change Station

Elev 984 ft 35.59 °N, 94.18 °W | Updated 5 seconds ago

Clear
Clear
56.0 °F
Feels Like 56.0 °F
N
5.0
Wind Variable Wind from North

Today
High -- | Low -- °F
--% Chance of Precip.
Yesterday
High -- | Low -- °F
Precip. -- in
Pressure 30.13 in
Visibility 10.0 miles
Clouds Clear
Dew Point 51 °F
Humidity 83%
Rainfall 0.00 in
Snow Depth Not available.
7:08 AM 7:05 PM
Waning Crescent, 14% visible
METAR KFSM 270453Z AUTO 06003KT 10SM CLR 18/08 A3014 RMK AO2 SLP201 T01780078 TSNO
Pressure 30.13 in
Visibility 10.0 miles
Clouds Clear
Dew Point 51 °F
Humidity 83%
Rainfall 0.00 in
Snow Depth Not available.
7:08 AM 7:05 PM
Waning Crescent, 14% visible
METAR KFSM 270453Z AUTO 06003KT 10SM CLR 18/08 A3014 RMK AO2 SLP201 T01780078 TSNO

10-Day Weather Forecast

Almanac

Astronomy

Sep. 27, 2016 Rise Set
Actual Time
Civil Twilight
Nautical Twilight
Astronomical Twilight
Moon
Length of Visible Light
Length of Day
Tomorrow will be .
, % of the Moon is Illuminated

Today's Extremes

State Highs State Lows

Community

WunderPhotos

Upload Photos

1,942,037 photos uploaded!

WunderBlog® & News

Nearby

Air Quality

  Air Quality AQ Index Pollutant
Not available.

Snow Depth

Station Depth Elevation

Earthquake Activity

City Distance Mag. Time & Date
Minimum magnitude displayed is 2.5.

Coastal Water Temperatures

Place Temperature

Stations

Nearby Weather Stations

Station Location Temp. Windchill Dew Point Humidity Wind Precip. Elev Updated Type
                   

Watches & Warnings

There are currently no watches in effect.